Time;durP1;ratioP1;P1;durP2;ratioP2;P2;SDS_P1;SDS_P2;PMS_P1;PMS_P2;Temp;Humidity;BMP_temperature;BMP_pressure;BME280_temperature;BME280_humidity;BME280_pressure;Samples;Min_cycle;Max_cycle;Signal;HPM_P1;HPM_P2
2021/04/26 00:01:24;;;;;;;;;9.50;9.00;;;;;;;;3584375;39;111836;-72
2021/04/26 00:03:50;;;;;;;;;9.00;9.00;;;;;;;;3582834;39;111774;-72
2021/04/26 00:06:16;;;;;;;;;5.50;5.50;;;;;;;;3583932;39;113854;-73
2021/04/26 00:08:42;;;;;;;;;8.75;8.50;;;;;;;;3584592;39;112330;-72
2021/04/26 00:11:08;;;;;;;;;9.50;9.50;;;;;;;;3579553;39;111818;-71
2021/04/26 00:13:35;;;;;;;;;8.00;6.50;;;;;;;;3584113;39;114128;-72
2021/04/26 00:16:01;;;;;;;;;10.50;8.75;;;;;;;;3584593;39;111989;-71
2021/04/26 00:18:27;;;;;;;;;10.75;9.75;;;;;;;;3584457;39;113308;-72
2021/04/26 00:20:53;;;;;;;;;7.00;6.25;;;;;;;;3586636;39;113986;-72
2021/04/26 00:23:20;;;;;;;;;10.00;9.00;;;;;;;;3584333;39;113254;-72
2021/04/26 00:25:46;;;;;;;;;10.00;9.50;;;;;;;;3583865;39;114213;-73
2021/04/26 00:28:12;;;;;;;;;11.00;8.50;;;;;;;;3584514;39;111788;-72
2021/04/26 00:30:38;;;;;;;;;7.50;7.50;;;;;;;;3584273;39;114129;-72
2021/04/26 00:33:05;;;;;;;;;9.00;7.50;;;;;;;;3580084;39;114057;-73
2021/04/26 00:35:31;;;;;;;;;11.00;9.25;;;;;;;;3583868;39;111947;-74
2021/04/26 00:37:57;;;;;;;;;12.75;11.00;;;;;;;;3584413;39;113970;-72
2021/04/26 00:40:23;;;;;;;;;8.00;8.00;;;;;;;;3583646;39;114080;-73
2021/04/26 00:42:50;;;;;;;;;11.25;8.50;;;;;;;;3585043;39;112364;-72
2021/04/26 00:45:17;;;;;;;;;11.25;11.25;;;;;;;;3583751;39;114133;-72
2021/04/26 00:47:45;;;;;;;;;7.25;7.25;;;;;;;;3584247;39;112126;-74
2021/04/26 00:50:12;;;;;;;;;7.00;7.00;;;;;;;;3584465;39;113355;-72
2021/04/26 00:52:39;;;;;;;;;9.00;7.25;;;;;;;;3583901;39;113664;-70
2021/04/26 00:55:06;;;;;;;;;6.25;5.00;;;;;;;;3580002;39;111817;-69
2021/04/26 00:57:32;;;;;;;;;8.00;5.25;;;;;;;;3581919;39;112763;-70
2021/04/26 00:59:58;;;;;;;;;7.00;6.00;;;;;;;;3583573;39;113860;-69
2021/04/26 01:02:24;;;;;;;;;5.00;5.00;;;;;;;;3583821;39;111817;-70
2021/04/26 01:04:51;;;;;;;;;5.00;5.00;;;;;;;;3586280;39;113208;-71
2021/04/26 01:07:17;;;;;;;;;6.00;5.25;;;;;;;;3583748;39;112217;-69
2021/04/26 01:09:43;;;;;;;;;5.50;5.50;;;;;;;;3584567;39;113376;-69
2021/04/26 01:12:13;;;;;;;;;7.25;5.00;;;;;;;;3584813;39;114024;-71
2021/04/26 01:14:41;;;;;;;;;6.25;5.50;;;;;;;;3583275;39;112561;-70
2021/04/26 01:17:09;;;;;;;;;5.25;5.25;;;;;;;;3585232;39;113319;-68
2021/04/26 01:19:51;;;;;;;;;6.75;5.25;;;;;;;;3580743;39;114014;-70
2021/04/26 01:22:32;;;;;;;;;9.25;6.00;;;;;;;;3581548;39;111933;-70
2021/04/26 01:25:07;;;;;;;;;5.00;5.00;;;;;;;;3587407;39;113233;-69
2021/04/26 01:27:52;;;;;;;;;4.50;4.50;;;;;;;;3579397;39;112718;-69
2021/04/26 01:30:21;;;;;;;;;6.75;5.25;;;;;;;;3581782;39;113567;-70
2021/04/26 01:32:51;;;;;;;;;4.00;3.00;;;;;;;;3584672;39;114104;-69
2021/04/26 01:35:19;;;;;;;;;6.50;6.50;;;;;;;;3585061;39;111896;-69
2021/04/26 01:37:48;;;;;;;;;7.00;6.00;;;;;;;;3585174;39;113537;-69
2021/04/26 01:40:14;;;;;;;;;5.25;5.25;;;;;;;;3584833;39;113975;-70
2021/04/26 01:42:43;;;;;;;;;5.00;5.00;;;;;;;;3585189;39;112161;-69
2021/04/26 01:45:16;;;;;;;;;5.00;5.00;;;;;;;;3585423;39;113483;-70
2021/04/26 01:47:42;;;;;;;;;9.00;6.50;;;;;;;;3587529;39;114039;-69
2021/04/26 01:50:10;;;;;;;;;6.00;6.00;;;;;;;;3585246;39;113618;-69
2021/04/26 01:52:36;;;;;;;;;5.50;5.00;;;;;;;;3580579;39;113830;-68
2021/04/26 01:55:04;;;;;;;;;8.75;6.00;;;;;;;;3585307;39;112633;-69
2021/04/26 01:57:30;;;;;;;;;5.00;5.00;;;;;;;;3585163;39;113262;-69
2021/04/26 01:59:57;;;;;;;;;7.50;6.00;;;;;;;;3584704;39;113819;-69
2021/04/26 02:02:24;;;;;;;;;5.00;5.00;;;;;;;;3582915;39;112437;-70
2021/04/26 02:04:51;;;;;;;;;5.50;5.00;;;;;;;;3585018;39;113314;-69
2021/04/26 02:07:18;;;;;;;;;5.75;5.75;;;;;;;;3584601;39;113746;-70
2021/04/26 02:09:44;;;;;;;;;5.75;5.00;;;;;;;;3587712;39;111762;-69
2021/04/26 02:12:11;;;;;;;;;6.00;5.25;;;;;;;;3584530;39;113969;-69
2021/04/26 02:14:39;;;;;;;;;7.50;7.50;;;;;;;;3584908;39;111783;-69
2021/04/26 02:17:05;;;;;;;;;5.50;5.50;;;;;;;;3577541;39;113713;-68
2021/04/26 02:19:32;;;;;;;;;6.00;5.00;;;;;;;;3584156;39;114007;-69
2021/04/26 02:21:58;;;;;;;;;7.00;5.25;;;;;;;;3585071;39;112175;-69
2021/04/26 02:24:25;;;;;;;;;10.00;9.50;;;;;;;;3584806;39;113773;-69
2021/04/26 02:26:51;;;;;;;;;10.75;8.00;;;;;;;;3584433;39;113712;-69
2021/04/26 02:29:17;;;;;;;;;8.00;8.00;;;;;;;;3584826;39;113788;-69
2021/04/26 02:31:45;;;;;;;;;8.00;8.00;;;;;;;;3587360;39;113238;-69
2021/04/26 02:34:13;;;;;;;;;10.25;9.75;;;;;;;;3583300;39;112109;-69
2021/04/26 02:36:42;;;;;;;;;10.75;8.00;;;;;;;;3584918;39;113518;-69
2021/04/26 02:39:09;;;;;;;;;5.75;5.75;;;;;;;;3584503;39;114729;-69
2021/04/26 02:41:39;;;;;;;;;8.50;7.00;;;;;;;;3584771;39;112093;-69
2021/04/26 02:44:07;;;;;;;;;7.00;6.00;;;;;;;;3581007;39;112816;-69
2021/04/26 02:46:34;;;;;;;;;7.50;7.50;;;;;;;;3580213;39;114135;-72
2021/04/26 02:49:02;;;;;;;;;8.00;8.00;;;;;;;;3584852;39;112025;-73
2021/04/26 02:51:29;;;;;;;;;8.00;6.50;;;;;;;;3584833;39;113195;-73
2021/04/26 02:53:55;;;;;;;;;8.75;8.00;;;;;;;;3587035;39;113903;-72
2021/04/26 02:56:22;;;;;;;;;7.75;7.75;;;;;;;;3584834;39;113278;-72
2021/04/26 02:58:51;;;;;;;;;5.50;5.50;;;;;;;;3584504;39;113989;-70
2021/04/26 03:01:17;;;;;;;;;7.25;7.25;;;;;;;;3584678;39;112920;-71
2021/04/26 03:03:45;;;;;;;;;9.00;8.25;;;;;;;;3585049;39;113421;-71
2021/04/26 03:06:11;;;;;;;;;7.75;7.75;;;;;;;;3584316;39;114254;-71
2021/04/26 03:08:39;;;;;;;;;8.00;8.00;;;;;;;;3585110;39;112244;-71
2021/04/26 03:11:06;;;;;;;;;8.25;8.25;;;;;;;;3585216;39;113272;-70
2021/04/26 03:13:32;;;;;;;;;8.00;8.00;;;;;;;;3584704;39;113896;-70
2021/04/26 03:15:59;;;;;;;;;8.00;8.00;;;;;;;;3587751;39;111906;-70
2021/04/26 03:18:25;;;;;;;;;8.25;8.00;;;;;;;;3584798;39;113760;-70
2021/04/26 03:20:52;;;;;;;;;6.50;6.50;;;;;;;;3585212;39;112018;-71
2021/04/26 03:23:20;;;;;;;;;7.75;7.75;;;;;;;;3585107;39;113610;-70
2021/04/26 03:25:46;;;;;;;;;10.00;8.00;;;;;;;;3584884;39;113959;-71
2021/04/26 03:28:12;;;;;;;;;7.50;7.00;;;;;;;;3580740;39;113273;-70
2021/04/26 03:30:39;;;;;;;;;7.00;7.00;;;;;;;;3580009;39;112303;-70
2021/04/26 03:33:06;;;;;;;;;7.25;7.25;;;;;;;;3583921;39;114118;-70
2021/04/26 03:35:33;;;;;;;;;8.75;8.00;;;;;;;;3583316;39;112001;-71
2021/04/26 03:37:59;;;;;;;;;9.00;8.00;;;;;;;;3584585;39;113890;-71
2021/04/26 03:40:26;;;;;;;;;8.25;7.25;;;;;;;;3584875;39;112262;-71
2021/04/26 03:42:53;;;;;;;;;10.00;7.00;;;;;;;;3585054;39;113289;-71
2021/04/26 03:45:19;;;;;;;;;7.25;7.00;;;;;;;;3584448;39;113795;-72
2021/04/26 03:47:45;;;;;;;;;4.00;4.00;;;;;;;;3585030;39;111880;-70
2021/04/26 03:50:13;;;;;;;;;10.75;9.00;;;;;;;;3585055;39;113452;-71
2021/04/26 03:52:39;;;;;;;;;9.75;9.75;;;;;;;;3584324;39;114313;-70
2021/04/26 03:55:06;;;;;;;;;8.75;8.75;;;;;;;;3585163;39;112634;-71
2021/04/26 03:57:32;;;;;;;;;8.75;8.25;;;;;;;;3586854;39;113248;-72
2021/04/26 03:59:58;;;;;;;;;8.75;8.00;;;;;;;;3584629;39;112307;-72
2021/04/26 04:02:26;;;;;;;;;7.00;6.50;;;;;;;;3584466;39;113755;-71
2021/04/26 04:04:52;;;;;;;;;8.00;7.75;;;;;;;;3584174;39;114096;-72
2021/04/26 04:07:19;;;;;;;;;9.25;8.75;;;;;;;;3584619;39;112184;-73
2021/04/26 04:09:45;;;;;;;;;10.50;8.00;;;;;;;;3584663;39;113637;-72
2021/04/26 04:12:11;;;;;;;;;9.00;9.00;;;;;;;;3584049;39;113984;-71
2021/04/26 04:14:37;;;;;;;;;10.00;8.50;;;;;;;;3584474;39;111970;-72
2021/04/26 04:17:03;;;;;;;;;8.00;8.00;;;;;;;;3580453;39;112887;-71
2021/04/26 04:19:29;;;;;;;;;10.25;8.75;;;;;;;;3586600;39;114591;-71
2021/04/26 04:21:55;;;;;;;;;11.25;8.50;;;;;;;;3584504;39;113359;-72
2021/04/26 04:24:22;;;;;;;;;8.25;8.25;;;;;;;;3583849;39;113956;-71
2021/04/26 04:26:48;;;;;;;;;11.00;9.00;;;;;;;;3584563;39;112365;-71
2021/04/26 04:29:14;;;;;;;;;8.50;8.00;;;;;;;;3584412;39;113505;-71
2021/04/26 04:31:40;;;;;;;;;10.50;9.00;;;;;;;;3584007;39;113956;-70
2021/04/26 04:34:06;;;;;;;;;9.75;8.25;;;;;;;;3584620;39;111889;-70
2021/04/26 04:36:32;;;;;;;;;9.00;9.00;;;;;;;;3584187;39;113679;-71
2021/04/26 04:38:58;;;;;;;;;7.25;7.25;;;;;;;;3584111;39;114359;-70
2021/04/26 04:41:25;;;;;;;;;10.25;10.25;;;;;;;;3586991;39;112032;-69
2021/04/26 04:43:51;;;;;;;;;11.75;10.50;;;;;;;;3583758;39;113911;-70
2021/04/26 04:46:18;;;;;;;;;12.25;10.00;;;;;;;;3582059;39;112078;-69
2021/04/26 04:48:44;;;;;;;;;7.50;7.50;;;;;;;;3584351;39;113352;-72
2021/04/26 04:51:10;;;;;;;;;11.75;11.50;;;;;;;;3582616;39;114073;-71
2021/04/26 04:53:36;;;;;;;;;10.00;9.75;;;;;;;;3584020;39;111772;-73
2021/04/26 04:56:02;;;;;;;;;15.25;9.25;;;;;;;;3586068;39;113886;-71
2021/04/26 04:58:29;;;;;;;;;14.00;9.75;;;;;;;;3584082;39;113929;-73
2021/04/26 05:00:55;;;;;;;;;10.75;9.75;;;;;;;;3584028;39;111966;-73
2021/04/26 05:03:21;;;;;;;;;10.25;9.00;;;;;;;;3585086;39;113603;-72
2021/04/26 05:05:47;;;;;;;;;9.00;9.00;;;;;;;;3584080;39;112297;-73
2021/04/26 05:08:13;;;;;;;;;8.25;8.25;;;;;;;;3584597;39;113897;-73
2021/04/26 05:10:39;;;;;;;;;8.00;8.00;;;;;;;;3585295;39;114158;-72
2021/04/26 05:13:05;;;;;;;;;13.75;12.50;;;;;;;;3584539;39;111764;-72
2021/04/26 05:15:32;;;;;;;;;6.00;6.00;;;;;;;;3582078;39;113704;-74
2021/04/26 05:17:59;;;;;;;;;8.00;7.75;;;;;;;;3581626;39;114074;-74
2021/04/26 05:20:25;;;;;;;;;17.25;16.25;;;;;;;;3584033;39;111878;-71
2021/04/26 05:22:51;;;;;;;;;9.00;8.00;;;;;;;;3584122;39;113269;-72
2021/04/26 05:25:17;;;;;;;;;10.50;10.50;;;;;;;;3585697;39;112425;-73
2021/04/26 05:27:43;;;;;;;;;13.50;12.75;;;;;;;;3581706;39;113364;-71
2021/04/26 05:30:10;;;;;;;;;8.50;8.00;;;;;;;;3583571;39;113904;-72
2021/04/26 05:32:37;;;;;;;;;12.00;11.50;;;;;;;;3583750;39;111900;-72
2021/04/26 05:35:03;;;;;;;;;13.00;11.50;;;;;;;;3582451;39;113457;-72
2021/04/26 05:37:29;;;;;;;;;8.25;8.00;;;;;;;;3583052;39;113796;-72
2021/04/26 05:39:55;;;;;;;;;11.25;9.25;;;;;;;;3583852;39;111934;-72
2021/04/26 05:42:21;;;;;;;;;19.50;17.00;;;;;;;;3583688;39;113175;-70
2021/04/26 05:44:48;;;;;;;;;9.75;9.75;;;;;;;;3586049;39;113869;-75
2021/04/26 05:47:14;;;;;;;;;9.50;9.50;;;;;;;;3583341;39;113230;-74
2021/04/26 05:49:40;;;;;;;;;12.25;10.50;;;;;;;;3583097;39;114003;-73
2021/04/26 05:52:06;;;;;;;;;7.50;7.50;;;;;;;;3577600;39;112077;-74
2021/04/26 05:54:33;;;;;;;;;7.25;7.25;;;;;;;;3582232;39;113047;-74
2021/04/26 05:56:59;;;;;;;;;10.25;9.25;;;;;;;;3584529;39;114331;-79
2021/04/26 05:59:25;;;;;;;;;11.00;10.00;;;;;;;;3584378;39;111844;-72
2021/04/26 06:01:51;;;;;;;;;12.50;12.50;;;;;;;;3582758;39;113703;-73
2021/04/26 06:04:17;;;;;;;;;12.50;10.25;;;;;;;;3584127;39;114074;-72
2021/04/26 06:06:44;;;;;;;;;11.50;11.50;;;;;;;;3587382;39;111923;-74
2021/04/26 06:09:10;;;;;;;;;10.00;10.00;;;;;;;;3584393;39;114707;-72
2021/04/26 06:11:36;;;;;;;;;14.00;12.25;;;;;;;;3584577;39;112299;-71
2021/04/26 06:14:02;;;;;;;;;10.50;9.25;;;;;;;;3584153;39;113852;-71
2021/04/26 06:16:28;;;;;;;;;13.00;10.00;;;;;;;;3584551;39;114021;-73
2021/04/26 06:18:54;;;;;;;;;11.00;11.00;;;;;;;;3585765;39;112028;-71
2021/04/26 06:21:20;;;;;;;;;11.75;9.75;;;;;;;;3585254;39;114328;-72
2021/04/26 06:23:47;;;;;;;;;15.25;11.00;;;;;;;;3577732;39;113036;-72
2021/04/26 06:26:13;;;;;;;;;10.75;10.75;;;;;;;;3583473;39;112295;-71
2021/04/26 06:28:39;;;;;;;;;11.00;10.75;;;;;;;;3585717;39;114620;-73
2021/04/26 06:31:05;;;;;;;;;12.25;11.50;;;;;;;;3583361;39;112590;-72
2021/04/26 06:33:31;;;;;;;;;13.75;13.00;;;;;;;;3583467;39;113170;-72
2021/04/26 06:35:57;;;;;;;;;15.50;14.25;;;;;;;;3580792;39;113918;-72
2021/04/26 06:38:23;;;;;;;;;13.00;13.00;;;;;;;;3584658;39;111847;-72
2021/04/26 06:40:50;;;;;;;;;12.00;10.25;;;;;;;;3585220;39;113489;-73
2021/04/26 06:43:16;;;;;;;;;13.00;10.25;;;;;;;;3584537;39;113949;-71
2021/04/26 06:45:45;;;;;;;;;14.75;10.75;;;;;;;;3585056;39;112895;-72
2021/04/26 06:48:13;;;;;;;;;15.00;12.50;;;;;;;;3584852;39;113426;-73
2021/04/26 06:50:39;;;;;;;;;15.50;14.50;;;;;;;;3583195;39;113786;-73
2021/04/26 06:53:05;;;;;;;;;12.50;12.50;;;;;;;;3584964;39;113650;-71
2021/04/26 06:55:31;;;;;;;;;15.50;14.25;;;;;;;;3584673;39;114020;-71
2021/04/26 06:57:59;;;;;;;;;11.00;11.00;;;;;;;;3584823;39;112021;-73
2021/04/26 07:00:26;;;;;;;;;11.75;11.00;;;;;;;;3583824;39;113347;-72
2021/04/26 07:02:52;;;;;;;;;13.75;11.50;;;;;;;;3583782;39;114378;-71
2021/04/26 07:05:19;;;;;;;;;15.50;13.75;;;;;;;;3584687;39;111911;-72
2021/04/26 07:07:45;;;;;;;;;10.75;10.75;;;;;;;;3585033;39;113367;-73
2021/04/26 07:10:42;;;;;;;;;15.00;14.00;;;;;;;;3573122;39;112798;-67
2021/04/26 07:13:08;;;;;;;;;13.00;11.50;;;;;;;;3565054;39;114392;-69
2021/04/26 07:15:34;;;;;;;;;7.75;6.50;;;;;;;;3565881;39;112059;-68
2021/04/26 07:18:00;;;;;;;;;15.00;14.00;;;;;;;;3566973;39;112034;-68
2021/04/26 07:20:26;;;;;;;;;14.25;13.00;;;;;;;;3565580;39;113646;-68
2021/04/26 07:22:52;;;;;;;;;13.25;13.00;;;;;;;;3565782;39;111860;-68
2021/04/26 07:25:18;;;;;;;;;15.00;14.50;;;;;;;;3566288;39;113463;-67
2021/04/26 07:27:45;;;;;;;;;14.75;14.00;;;;;;;;3564858;39;114133;-69
2021/04/26 07:30:12;;;;;;;;;16.25;14.50;;;;;;;;3569565;39;112522;-68
2021/04/26 07:32:38;;;;;;;;;16.00;15.00;;;;;;;;3564836;39;114066;-69
2021/04/26 07:35:05;;;;;;;;;17.00;14.25;;;;;;;;3566846;39;111977;-68
2021/04/26 07:37:31;;;;;;;;;18.75;17.50;;;;;;;;3565301;39;113269;-68
2021/04/26 07:39:57;;;;;;;;;23.75;19.75;;;;;;;;3565652;39;114264;-70
2021/04/26 07:42:23;;;;;;;;;21.75;18.50;;;;;;;;3565649;39;112022;-68
2021/04/26 07:44:50;;;;;;;;;17.50;16.50;;;;;;;;3565506;39;113222;-68
2021/04/26 07:47:16;;;;;;;;;19.25;16.50;;;;;;;;3565709;39;114787;-68
2021/04/26 07:49:42;;;;;;;;;18.00;18.00;;;;;;;;3564933;39;112688;-69
2021/04/26 07:52:08;;;;;;;;;18.00;17.00;;;;;;;;3569047;39;112201;-69
2021/04/26 07:54:34;;;;;;;;;22.00;21.00;;;;;;;;3564865;39;112041;-69
2021/04/26 07:57:00;;;;;;;;;20.00;18.75;;;;;;;;3566563;39;113165;-69
2021/04/26 07:59:26;;;;;;;;;20.50;18.00;;;;;;;;3564893;39;113754;-68
2021/04/26 08:01:53;;;;;;;;;25.00;22.75;;;;;;;;3565283;39;112102;-67
2021/04/26 08:04:19;;;;;;;;;27.00;23.75;;;;;;;;3566063;39;113147;-68
2021/04/26 08:06:45;;;;;;;;;26.50;24.50;;;;;;;;3564750;39;113783;-70
2021/04/26 08:09:11;;;;;;;;;24.75;23.00;;;;;;;;3566802;39;112389;-69
2021/04/26 08:11:37;;;;;;;;;21.75;19.25;;;;;;;;3565085;39;113433;-69
2021/04/26 08:14:04;;;;;;;;;21.50;20.75;;;;;;;;3568769;39;113734;-68
2021/04/26 08:16:30;;;;;;;;;20.25;19.00;;;;;;;;3565037;39;113201;-68
2021/04/26 08:18:57;;;;;;;;;21.00;20.00;;;;;;;;3565506;39;113869;-67
2021/04/26 08:21:23;;;;;;;;;19.00;18.00;;;;;;;;3560581;39;111801;-69
2021/04/26 08:23:49;;;;;;;;;23.75;19.75;;;;;;;;3558658;39;113487;-69
2021/04/26 08:26:15;;;;;;;;;24.75;19.00;;;;;;;;3558790;39;114403;-68
2021/04/26 08:28:41;;;;;;;;;19.75;16.50;;;;;;;;3558091;39;112009;-68
2021/04/26 08:31:07;;;;;;;;;25.25;19.75;;;;;;;;3559925;39;114944;-71
2021/04/26 08:33:34;;;;;;;;;21.50;18.75;;;;;;;;3555309;39;112922;-69
2021/04/26 08:36:01;;;;;;;;;22.75;19.00;;;;;;;;3562310;39;112005;-69
2021/04/26 08:38:27;;;;;;;;;20.75;20.25;;;;;;;;3557831;39;112851;-69
2021/04/26 08:40:53;;;;;;;;;22.00;19.75;;;;;;;;3558470;39;111803;-68
2021/04/26 08:43:19;;;;;;;;;17.75;17.75;;;;;;;;3558252;39;113380;-68
2021/04/26 08:45:45;;;;;;;;;17.75;16.25;;;;;;;;3557194;39;113883;-69
2021/04/26 08:48:12;;;;;;;;;13.00;13.00;;;;;;;;3559031;39;112040;-69
2021/04/26 08:50:38;;;;;;;;;22.50;17.75;;;;;;;;3559268;39;113996;-69
2021/04/26 08:53:06;;;;;;;;;19.50;18.50;;;;;;;;3558355;39;113948;-70
2021/04/26 08:55:32;;;;;;;;;23.00;21.00;;;;;;;;3557914;39;113431;-69
2021/04/26 08:57:58;;;;;;;;;14.75;14.75;;;;;;;;3561810;39;113335;-69
2021/04/26 09:00:24;;;;;;;;;19.25;16.50;;;;;;;;3559296;39;112235;-69
2021/04/26 09:02:54;;;;;;;;;18.00;16.00;;;;;;;;3558962;39;113474;-69
2021/04/26 09:05:25;;;;;;;;;18.50;18.50;;;;;;;;3558825;39;114054;-67
2021/04/26 09:07:51;;;;;;;;;17.25;16.75;;;;;;;;3559086;39;111895;-69
2021/04/26 09:10:34;;;;;;;;;20.25;16.00;;;;;;;;3559845;39;113338;-69
2021/04/26 09:13:07;;;;;;;;;23.25;22.00;;;;;;;;3559157;39;114692;-69
2021/04/26 09:15:49;;;;;;;;;17.00;17.00;;;;;;;;3558381;39;111947;-69
2021/04/26 09:18:15;;;;;;;;;13.75;13.50;;;;;;;;3558449;39;113327;-69
2021/04/26 09:20:41;;;;;;;;;18.00;17.25;;;;;;;;3562130;39;112767;-69
2021/04/26 09:23:07;;;;;;;;;18.75;17.00;;;;;;;;3558543;39;112740;-69
2021/04/26 09:25:35;;;;;;;;;17.75;15.50;;;;;;;;3559053;39;113716;-70
2021/04/26 09:28:02;;;;;;;;;16.25;16.25;;;;;;;;3556539;39;113267;-69
2021/04/26 09:30:35;;;;;;;;;15.25;14.00;;;;;;;;3559165;39;113211;-69
2021/04/26 09:33:14;;;;;;;;;18.50;17.00;;;;;;;;3559043;39;113958;-68
2021/04/26 09:35:40;;;;;;;;;18.75;17.00;;;;;;;;3558308;39;112213;-69
2021/04/26 09:38:22;;;;;;;;;15.25;15.00;;;;;;;;3558185;39;112117;-69
2021/04/26 09:41:06;;;;;;;;;18.75;16.00;;;;;;;;3565230;39;114013;-69
2021/04/26 09:43:32;;;;;;;;;18.00;18.00;;;;;;;;3558447;39;113483;-69
2021/04/26 09:45:58;;;;;;;;;19.00;17.75;;;;;;;;3559129;39;113717;-69
2021/04/26 09:48:27;;;;;;;;;13.25;11.00;;;;;;;;3558856;39;111921;-69
2021/04/26 09:50:54;;;;;;;;;21.25;19.00;;;;;;;;3559151;39;113312;-69
2021/04/26 09:53:21;;;;;;;;;16.50;16.50;;;;;;;;3558738;39;113932;-69
2021/04/26 09:55:47;;;;;;;;;19.25;16.75;;;;;;;;3558786;39;112146;-69
2021/04/26 09:58:14;;;;;;;;;18.50;17.25;;;;;;;;3559752;39;113241;-69
2021/04/26 10:00:42;;;;;;;;;17.75;17.00;;;;;;;;3557865;39;114014;-69
2021/04/26 10:03:09;;;;;;;;;17.25;17.25;;;;;;;;3561105;39;111836;-70
2021/04/26 10:05:35;;;;;;;;;22.00;20.50;;;;;;;;3559321;39;113872;-69
2021/04/26 10:08:01;;;;;;;;;21.00;19.25;;;;;;;;3558560;39;112908;-68
2021/04/26 10:10:27;;;;;;;;;19.75;17.00;;;;;;;;3561345;39;113349;-70
2021/04/26 10:12:53;;;;;;;;;17.75;17.75;;;;;;;;3558563;39;113998;-68
2021/04/26 10:15:26;;;;;;;;;19.00;17.00;;;;;;;;3558508;39;111970;-69
2021/04/26 10:17:53;;;;;;;;;20.00;17.25;;;;;;;;3559318;39;113191;-69
2021/04/26 10:20:31;;;;;;;;;19.00;19.00;;;;;;;;3558121;39;113785;-68
2021/04/26 10:22:57;;;;;;;;;18.00;17.50;;;;;;;;3558846;39;111830;-69
2021/04/26 10:25:36;;;;;;;;;17.25;16.00;;;;;;;;3561049;39;113347;-69
2021/04/26 10:28:24;;;;;;;;;16.00;16.00;;;;;;;;3558365;39;111985;-70
2021/04/26 10:30:58;;;;;;;;;5.75;4.00;;;;;;;;3558865;39;113704;-70
2021/04/26 10:33:24;;;;;;;;;19.00;16.50;;;;;;;;3559206;39;114242;-69
2021/04/26 10:35:51;;;;;;;;;19.25;16.25;;;;;;;;3559787;39;111904;-69
2021/04/26 10:38:36;;;;;;;;;18.75;17.00;;;;;;;;3559701;39;113224;-69
2021/04/26 10:41:02;;;;;;;;;14.75;14.75;;;;;;;;3557970;39;114058;-69
2021/04/26 10:43:29;;;;;;;;;14.50;12.50;;;;;;;;3559076;39;112131;-69
2021/04/26 10:46:18;;;;;;;;;17.00;17.00;;;;;;;;3558805;39;113184;-69
2021/04/26 10:48:59;;;;;;;;;13.50;11.50;;;;;;;;3560507;39;113768;-69
2021/04/26 10:51:25;;;;;;;;;17.25;15.00;;;;;;;;3558544;39;113271;-69
2021/04/26 10:53:51;;;;;;;;;15.75;14.50;;;;;;;;3557104;39;113485;-69
2021/04/26 10:56:22;;;;;;;;;11.75;11.25;;;;;;;;3559048;39;111899;-70
2021/04/26 10:58:49;;;;;;;;;14.00;12.75;;;;;;;;3558594;39;113318;-68
2021/04/26 11:01:19;;;;;;;;;13.75;12.75;;;;;;;;3558697;39;114015;-68
2021/04/26 11:03:46;;;;;;;;;12.75;12.75;;;;;;;;3557928;39;111738;-70
2021/04/26 11:06:26;;;;;;;;;15.00;11.50;;;;;;;;3559797;39;113221;-69
2021/04/26 11:09:07;;;;;;;;;12.00;11.25;;;;;;;;3560192;39;114111;-69
2021/04/26 11:11:38;;;;;;;;;11.25;10.25;;;;;;;;3560687;39;112358;-69
2021/04/26 11:14:04;;;;;;;;;11.50;11.00;;;;;;;;3558862;39;114045;-70
2021/04/26 11:16:32;;;;;;;;;10.25;10.25;;;;;;;;3556770;39;112289;-69
2021/04/26 11:19:06;;;;;;;;;12.25;11.00;;;;;;;;3557805;39;113426;-69
2021/04/26 11:21:51;;;;;;;;;13.25;13.25;;;;;;;;3557283;39;113674;-68
2021/04/26 11:24:32;;;;;;;;;12.25;10.50;;;;;;;;3557890;39;112319;-69
2021/04/26 11:27:17;;;;;;;;;12.75;10.75;;;;;;;;3556592;39;114325;-70
2021/04/26 11:30:05;;;;;;;;;10.75;9.00;;;;;;;;3555541;39;113919;-69
2021/04/26 11:32:32;;;;;;;;;9.00;9.00;;;;;;;;3559168;39;111966;-68
2021/04/26 11:35:05;;;;;;;;;7.25;6.75;;;;;;;;3557149;39;114019;-74
2021/04/26 11:37:34;;;;;;;;;12.25;9.25;;;;;;;;3556723;39;112491;-73
2021/04/26 11:40:00;;;;;;;;;9.00;9.00;;;;;;;;3556743;39;113945;-74
2021/04/26 11:42:27;;;;;;;;;9.00;7.25;;;;;;;;3557566;39;114213;-73
2021/04/26 11:44:53;;;;;;;;;8.50;8.50;;;;;;;;3557742;39;112328;-73
2021/04/26 11:47:20;;;;;;;;;8.00;8.00;;;;;;;;3556590;39;113348;-67
2021/04/26 11:49:48;;;;;;;;;11.50;10.50;;;;;;;;3555916;39;113876;-68
2021/04/26 11:52:16;;;;;;;;;10.00;7.00;;;;;;;;3556219;39;112257;-69
2021/04/26 11:54:43;;;;;;;;;10.75;10.50;;;;;;;;3560429;39;114634;-68
2021/04/26 11:57:11;;;;;;;;;9.75;8.50;;;;;;;;3558652;39;112234;-68
2021/04/26 11:59:47;;;;;;;;;10.00;10.00;;;;;;;;3559892;39;113439;-68
2021/04/26 12:02:13;;;;;;;;;9.25;9.25;;;;;;;;3559735;39;113902;-67
2021/04/26 12:04:40;;;;;;;;;9.50;9.00;;;;;;;;3557691;39;112340;-68
2021/04/26 12:07:07;;;;;;;;;10.75;8.25;;;;;;;;3558472;39;113184;-68
2021/04/26 12:09:34;;;;;;;;;10.25;8.00;;;;;;;;3556890;39;114504;-68
2021/04/26 12:12:00;;;;;;;;;8.00;8.00;;;;;;;;3559544;39;112969;-67
2021/04/26 12:14:26;;;;;;;;;7.25;7.25;;;;;;;;3557791;39;113413;-67
2021/04/26 12:16:52;;;;;;;;;6.50;6.50;;;;;;;;3563745;39;114175;-68
2021/04/26 12:19:30;;;;;;;;;9.75;8.75;;;;;;;;3557429;39;112468;-69
2021/04/26 12:21:56;;;;;;;;;10.50;8.00;;;;;;;;3558785;39;114072;-68
2021/04/26 12:24:24;;;;;;;;;8.00;8.00;;;;;;;;3558819;39;112249;-68
2021/04/26 12:26:50;;;;;;;;;10.00;7.00;;;;;;;;3558689;39;113303;-69
2021/04/26 12:29:24;;;;;;;;;9.50;9.50;;;;;;;;3558973;39;114533;-68
2021/04/26 12:32:07;;;;;;;;;10.25;9.50;;;;;;;;3558664;39;113494;-67
2021/04/26 12:34:45;;;;;;;;;7.75;7.75;;;;;;;;3558252;39;113750;-67
2021/04/26 12:37:11;;;;;;;;;9.25;9.00;;;;;;;;3557913;39;113833;-67
2021/04/26 12:39:38;;;;;;;;;8.25;8.25;;;;;;;;3562534;39;112190;-67
2021/04/26 12:42:08;;;;;;;;;9.50;8.75;;;;;;;;3557816;39;114264;-66
2021/04/26 12:44:34;;;;;;;;;6.50;6.50;;;;;;;;3559450;39;112120;-67
2021/04/26 12:47:14;;;;;;;;;11.25;10.00;;;;;;;;3558645;39;113156;-68
2021/04/26 12:49:40;;;;;;;;;9.00;9.00;;;;;;;;3557657;39;114045;-68
2021/04/26 12:52:11;;;;;;;;;8.75;8.75;;;;;;;;3559713;39;112171;-67
2021/04/26 12:54:38;;;;;;;;;8.75;8.75;;;;;;;;3559657;39;113246;-66
2021/04/26 12:57:04;;;;;;;;;10.50;8.25;;;;;;;;3559447;39;114262;-67
2021/04/26 12:59:43;;;;;;;;;8.25;8.00;;;;;;;;3558411;39;112543;-67
2021/04/26 13:02:09;;;;;;;;;9.75;9.75;;;;;;;;3559101;39;113475;-68
2021/04/26 13:04:35;;;;;;;;;6.50;5.25;;;;;;;;3558882;39;114152;-67
2021/04/26 13:07:01;;;;;;;;;8.00;7.75;;;;;;;;3557802;39;113718;-68
2021/04/26 13:09:27;;;;;;;;;6.50;6.00;;;;;;;;3558216;39;113986;-68
2021/04/26 13:11:55;;;;;;;;;10.25;7.00;;;;;;;;3559980;39;111898;-67
2021/04/26 13:14:23;;;;;;;;;9.00;9.00;;;;;;;;3558442;39;112154;-68
2021/04/26 15:04:36;;;;;;;;;9.80;8.60;;;;;;;;3572714;39;111989;-72
2021/04/26 15:07:03;;;;;;;;;6.00;6.00;;;;;;;;3565717;39;113848;-70
2021/04/26 15:09:29;;;;;;;;;4.25;4.25;;;;;;;;3566393;39;112522;-70
2021/04/26 15:11:55;;;;;;;;;6.50;6.00;;;;;;;;3566704;39;113651;-68
2021/04/26 15:14:21;;;;;;;;;6.75;5.75;;;;;;;;3564181;39;113066;-67
2021/04/26 15:16:47;;;;;;;;;4.50;4.50;;;;;;;;3566812;39;112395;-68
2021/04/26 15:19:13;;;;;;;;;5.50;5.25;;;;;;;;3562822;39;113377;-69
2021/04/26 15:21:40;;;;;;;;;9.00;7.75;;;;;;;;3562754;39;113869;-68
2021/04/26 15:24:07;;;;;;;;;6.00;6.00;;;;;;;;3569684;39;112074;-70
2021/04/26 15:26:33;;;;;;;;;5.00;5.00;;;;;;;;3564890;39;113785;-68
2021/04/26 15:28:59;;;;;;;;;5.00;5.00;;;;;;;;3563746;39;113916;-69
2021/04/26 15:31:25;;;;;;;;;7.25;6.75;;;;;;;;3565718;39;113343;-69
2021/04/26 15:33:51;;;;;;;;;8.00;6.50;;;;;;;;3561762;39;113824;-69
2021/04/26 15:36:20;;;;;;;;;7.00;6.00;;;;;;;;3563771;39;112034;-68
2021/04/26 15:38:47;;;;;;;;;5.50;5.50;;;;;;;;3568370;39;114024;-70
2021/04/26 15:41:13;;;;;;;;;6.00;6.00;;;;;;;;3568816;39;114030;-72
2021/04/26 15:43:39;;;;;;;;;5.50;5.50;;;;;;;;3568029;39;111997;-70
2021/04/26 15:46:05;;;;;;;;;7.75;5.50;;;;;;;;3571562;39;114370;-69
2021/04/26 15:48:32;;;;;;;;;7.00;7.00;;;;;;;;3569219;39;112326;-69
2021/04/26 15:50:58;;;;;;;;;5.00;5.00;;;;;;;;3567907;39;113188;-71
2021/04/26 15:53:25;;;;;;;;;2.75;2.00;;;;;;;;3565404;39;113834;-69
2021/04/26 15:55:51;;;;;;;;;5.00;5.00;;;;;;;;3562418;39;112142;-69
2021/04/26 15:58:17;;;;;;;;;7.25;6.25;;;;;;;;3564782;39;113402;-70
2021/04/26 16:00:44;;;;;;;;;6.00;6.00;;;;;;;;3566830;39;113891;-71
2021/04/26 16:03:10;;;;;;;;;5.00;5.00;;;;;;;;3567484;39;111978;-72
2021/04/26 16:05:36;;;;;;;;;6.00;6.00;;;;;;;;3568894;39;113406;-71
2021/04/26 16:08:03;;;;;;;;;5.25;5.25;;;;;;;;3568912;39;113777;-73
2021/04/26 16:10:29;;;;;;;;;6.00;5.75;;;;;;;;3566358;39;113643;-71